Time;durP1;ratioP1;P1;durP2;ratioP2;P2;SDS_P1;SDS_P2;PMS_P1;PMS_P2;Temp;Humidity;BMP_temperature;BMP_pressure;BME280_temperature;BME280_humidity;BME280_pressure;Samples;Min_cycle;Max_cycle;Signal;HPM_P1;HPM_P2
2023/04/15 00:02:00;;;;;;;12.57;6.45;;;;;;;;;;5000706;28;20434;-82
2023/04/15 00:04:27;;;;;;;11.43;6.13;;;;;;;;;;4992519;28;20432;-82
2023/04/15 00:06:53;;;;;;;13.52;6.15;;;;;;;;;;4996034;28;20434;-82
2023/04/15 00:09:20;;;;;;;13.40;5.93;;;;;;;;;;5018658;28;20407;-82
2023/04/15 00:11:46;;;;;;;14.05;6.47;;;;;;;;;;5001236;28;20412;-81
2023/04/15 00:14:13;;;;;;;11.68;6.20;;;;;;;;;;5000023;28;20484;-83
2023/04/15 00:16:42;;;;;;;11.80;6.18;;;;;;;;;;4993636;28;20787;-82
2023/04/15 00:19:08;;;;;;;11.82;5.82;;;;;;;;;;4984693;28;20469;-82
2023/04/15 00:21:34;;;;;;;10.88;6.40;;;;;;;;;;4982047;28;20441;-83
2023/04/15 00:24:01;;;;;;;11.80;6.30;;;;;;;;;;4981589;28;20448;-80
2023/04/15 00:26:30;;;;;;;14.30;6.40;;;;;;;;;;4988933;28;20430;-82
2023/04/15 00:28:56;;;;;;;12.38;6.53;;;;;;;;;;4999591;28;20927;-81
2023/04/15 00:31:23;;;;;;;12.68;6.30;;;;;;;;;;4996176;28;20414;-83
2023/04/15 00:33:49;;;;;;;12.48;6.40;;;;;;;;;;4978899;28;20426;-82
2023/04/15 00:36:15;;;;;;;15.40;6.60;;;;;;;;;;4974664;28;20466;-83
2023/04/15 00:38:41;;;;;;;13.98;6.95;;;;;;;;;;4989398;28;20808;-82
2023/04/15 00:41:13;;;;;;;13.65;7.00;;;;;;;;;;5001485;28;20421;-83
2023/04/15 00:43:39;;;;;;;15.48;7.47;;;;;;;;;;4979841;28;20430;-83
2023/04/15 00:46:06;;;;;;;14.40;7.32;;;;;;;;;;4992678;28;20508;-89
2023/04/15 00:48:32;;;;;;;12.15;7.32;;;;;;;;;;4995970;28;21009;-90
2023/04/15 00:50:59;;;;;;;14.48;7.43;;;;;;;;;;4979095;28;20773;-90
2023/04/15 00:53:25;;;;;;;12.38;7.25;;;;;;;;;;4978704;28;20406;-90
2023/04/15 00:55:51;;;;;;;14.88;7.45;;;;;;;;;;4974701;28;20767;-90
2023/04/15 00:58:20;;;;;;;14.77;7.70;;;;;;;;;;4977943;28;20474;-90
2023/04/15 01:00:46;;;;;;;12.35;7.40;;;;;;;;;;4966213;28;20418;-89
2023/04/15 01:03:14;;;;;;;13.73;7.78;;;;;;;;;;4999221;28;20438;-90
2023/04/15 01:05:40;;;;;;;15.52;8.20;;;;;;;;;;4977932;28;20488;-90
2023/04/15 01:08:07;;;;;;;14.50;7.80;;;;;;;;;;4991124;28;20439;-90
2023/04/15 01:10:35;;;;;;;16.08;8.25;;;;;;;;;;4984222;28;20422;-89
2023/04/15 01:13:08;;;;;;;14.60;8.10;;;;;;;;;;5000047;28;20893;-89
2023/04/15 01:15:35;;;;;;;15.90;9.15;;;;;;;;;;4962121;28;20419;-90
2023/04/15 01:18:02;;;;;;;16.05;8.70;;;;;;;;;;4985514;28;20436;-90
2023/04/15 01:20:29;;;;;;;15.27;8.50;;;;;;;;;;5001099;28;20420;-89
2023/04/15 01:22:57;;;;;;;14.77;8.55;;;;;;;;;;5007529;28;20926;-89
2023/04/15 01:25:30;;;;;;;17.40;8.63;;;;;;;;;;4993473;28;20430;-89
2023/04/15 01:27:56;;;;;;;18.55;8.80;;;;;;;;;;4977226;28;20789;-89
2023/04/15 01:30:23;;;;;;;20.15;9.63;;;;;;;;;;4981433;28;20433;-89
2023/04/15 01:32:49;;;;;;;17.48;9.73;;;;;;;;;;4986632;28;20540;-89
2023/04/15 01:35:16;;;;;;;16.45;9.73;;;;;;;;;;4980044;28;20426;-88
2023/04/15 01:37:46;;;;;;;15.13;9.93;;;;;;;;;;4991917;28;20429;-89
2023/04/15 01:40:12;;;;;;;19.03;10.40;;;;;;;;;;4993128;28;20420;-88
2023/04/15 01:42:39;;;;;;;17.50;10.33;;;;;;;;;;5006334;28;20430;-88
2023/04/15 01:45:06;;;;;;;16.25;10.45;;;;;;;;;;4989379;28;20432;-88
2023/04/15 01:47:32;;;;;;;14.45;9.35;;;;;;;;;;4968831;28;20445;-87
2023/04/15 01:49:58;;;;;;;18.95;10.90;;;;;;;;;;4978606;28;20917;-88
2023/04/15 01:52:24;;;;;;;18.02;10.40;;;;;;;;;;5007597;28;20773;-88
2023/04/15 01:54:51;;;;;;;19.17;10.30;;;;;;;;;;4977179;28;20449;-88
2023/04/15 01:57:17;;;;;;;18.40;10.48;;;;;;;;;;4964056;28;20991;-88
2023/04/15 01:59:43;;;;;;;15.70;11.10;;;;;;;;;;4983188;28;20439;-89
2023/04/15 02:02:09;;;;;;;18.10;11.15;;;;;;;;;;4999924;28;20926;-89
2023/04/15 02:04:35;;;;;;;18.37;11.17;;;;;;;;;;4972481;28;20776;-89
2023/04/15 02:07:01;;;;;;;18.52;11.13;;;;;;;;;;4989118;28;20515;-89
2023/04/15 02:09:30;;;;;;;19.08;11.40;;;;;;;;;;4983786;28;20424;-89
2023/04/15 02:11:56;;;;;;;17.52;11.65;;;;;;;;;;4984387;28;20426;-88
2023/04/15 02:14:22;;;;;;;19.55;11.88;;;;;;;;;;4960469;28;20426;-87
2023/04/15 02:16:48;;;;;;;17.77;12.05;;;;;;;;;;4993136;28;20502;-88
2023/04/15 02:19:14;;;;;;;19.70;11.70;;;;;;;;;;4977121;28;20410;-88
2023/04/15 02:21:41;;;;;;;17.35;11.57;;;;;;;;;;4977785;28;20426;-88
2023/04/15 02:24:07;;;;;;;18.48;11.27;;;;;;;;;;4974627;28;20452;-88
2023/04/15 02:26:33;;;;;;;17.20;12.05;;;;;;;;;;4972046;28;20437;-88
2023/04/15 02:28:59;;;;;;;21.30;12.50;;;;;;;;;;4978042;28;20553;-88
2023/04/15 02:31:25;;;;;;;19.50;12.57;;;;;;;;;;4956966;28;20503;-87
2023/04/15 02:33:52;;;;;;;20.17;12.02;;;;;;;;;;4968087;28;20418;-88
2023/04/15 02:36:18;;;;;;;19.43;12.27;;;;;;;;;;4993110;28;20416;-88
2023/04/15 02:38:44;;;;;;;19.52;12.82;;;;;;;;;;5023277;28;20406;-87
2023/04/15 02:41:10;;;;;;;21.00;12.68;;;;;;;;;;4982598;28;20406;-88
2023/04/15 02:43:38;;;;;;;20.92;13.32;;;;;;;;;;4971461;28;20926;-89
2023/04/15 02:46:05;;;;;;;21.48;13.15;;;;;;;;;;4972275;28;20451;-88
2023/04/15 02:48:31;;;;;;;19.88;13.40;;;;;;;;;;4957771;28;20592;-89
2023/04/15 02:51:18;;;;;;;19.63;13.05;;;;;;;;;;4990397;28;20428;-88
2023/04/15 02:53:44;;;;;;;19.73;13.30;;;;;;;;;;4994141;28;20432;-87
2023/04/15 02:56:14;;;;;;;24.20;13.50;;;;;;;;;;4983440;28;20428;-88
2023/04/15 02:58:41;;;;;;;21.85;13.15;;;;;;;;;;4960142;28;20426;-88
2023/04/15 03:01:10;;;;;;;20.50;13.10;;;;;;;;;;4985864;28;20456;-88
2023/04/15 03:03:36;;;;;;;19.40;12.40;;;;;;;;;;4980934;28;20438;-88
2023/04/15 03:06:02;;;;;;;20.57;13.10;;;;;;;;;;4963626;28;20437;-88
2023/04/15 03:08:29;;;;;;;20.88;12.60;;;;;;;;;;4961684;28;20480;-88
2023/04/15 03:10:55;;;;;;;20.85;13.02;;;;;;;;;;4961196;28;20452;-88
2023/04/15 03:13:24;;;;;;;18.83;12.02;;;;;;;;;;4974017;28;20514;-88
2023/04/15 03:15:50;;;;;;;17.70;12.20;;;;;;;;;;4971800;28;20530;-88
2023/04/15 03:18:16;;;;;;;19.10;12.30;;;;;;;;;;4976381;28;20420;-90
2023/04/15 03:20:42;;;;;;;17.77;12.27;;;;;;;;;;4960723;28;20464;-88
2023/04/15 03:23:09;;;;;;;18.95;12.30;;;;;;;;;;4954625;28;20435;-88
2023/04/15 03:25:36;;;;;;;17.45;12.25;;;;;;;;;;4961853;28;20937;-88
2023/04/15 03:28:02;;;;;;;19.20;12.40;;;;;;;;;;4981401;28;20418;-88
2023/04/15 03:30:29;;;;;;;18.90;12.43;;;;;;;;;;5006638;28;20434;-89
2023/04/15 03:32:55;;;;;;;17.30;11.85;;;;;;;;;;4977094;28;20964;-88
2023/04/15 03:35:21;;;;;;;18.58;12.13;;;;;;;;;;4972717;28;20467;-88
2023/04/15 03:37:48;;;;;;;18.60;12.82;;;;;;;;;;4972158;28;20428;-88
2023/04/15 03:40:14;;;;;;;20.02;12.50;;;;;;;;;;5002824;28;20429;-88
2023/04/15 03:42:40;;;;;;;19.23;12.30;;;;;;;;;;4977049;28;20957;-88
2023/04/15 03:45:07;;;;;;;17.30;12.20;;;;;;;;;;4980042;28;20909;-88
2023/04/15 03:47:33;;;;;;;17.77;12.52;;;;;;;;;;4975492;28;20431;-88
2023/04/15 03:49:59;;;;;;;19.35;12.90;;;;;;;;;;4960336;28;20427;-89
2023/04/15 03:52:25;;;;;;;19.13;12.45;;;;;;;;;;4977446;28;20420;-89
2023/04/15 03:54:51;;;;;;;19.85;12.95;;;;;;;;;;4983584;28;20873;-89
2023/04/15 03:57:17;;;;;;;21.00;12.90;;;;;;;;;;4961508;28;20424;-88
2023/04/15 03:59:43;;;;;;;19.98;13.73;;;;;;;;;;4959961;28;20424;-88
2023/04/15 04:02:13;;;;;;;19.20;12.98;;;;;;;;;;4983304;28;20433;-88
2023/04/15 04:04:39;;;;;;;19.70;13.85;;;;;;;;;;4992032;28;20424;-87
2023/04/15 04:07:05;;;;;;;20.77;13.40;;;;;;;;;;4994789;28;20840;-88
2023/04/15 04:09:31;;;;;;;19.25;13.27;;;;;;;;;;4982249;28;20862;-88
2023/04/15 04:11:57;;;;;;;18.63;13.40;;;;;;;;;;4994500;28;20420;-88
2023/04/15 04:14:28;;;;;;;23.02;14.30;;;;;;;;;;4973613;28;20523;-89
2023/04/15 04:16:54;;;;;;;21.20;14.35;;;;;;;;;;4980050;28;20442;-89
2023/04/15 04:19:20;;;;;;;20.70;14.05;;;;;;;;;;4978037;28;20426;-90
2023/04/15 04:21:46;;;;;;;21.00;14.05;;;;;;;;;;4969038;28;20430;-89
2023/04/15 04:24:13;;;;;;;22.35;13.73;;;;;;;;;;4979713;28;20414;-89
2023/04/15 04:26:39;;;;;;;21.52;14.40;;;;;;;;;;4984466;28;20773;-89
2023/04/15 04:29:05;;;;;;;23.10;14.20;;;;;;;;;;4989875;28;20430;-88
2023/04/15 04:31:33;;;;;;;21.05;13.18;;;;;;;;;;4971021;28;20472;-88
2023/04/15 04:33:59;;;;;;;20.10;13.50;;;;;;;;;;4986046;28;20760;-89
2023/04/15 04:36:28;;;;;;;20.30;14.13;;;;;;;;;;4977240;28;20436;-88
2023/04/15 04:38:56;;;;;;;22.23;14.38;;;;;;;;;;4994219;28;20423;-88
2023/04/15 04:41:22;;;;;;;20.50;14.23;;;;;;;;;;4999716;28;20932;-89
2023/04/15 04:43:48;;;;;;;24.77;15.45;;;;;;;;;;4980175;28;20427;-89
2023/04/15 04:46:15;;;;;;;20.75;14.65;;;;;;;;;;4988299;28;20403;-88
2023/04/15 04:48:41;;;;;;;24.63;15.52;;;;;;;;;;4980122;28;20441;-88
2023/04/15 04:51:08;;;;;;;25.15;15.63;;;;;;;;;;4986418;28;20525;-87
2023/04/15 04:53:36;;;;;;;23.77;15.90;;;;;;;;;;4981172;28;20437;-89
2023/04/15 04:56:02;;;;;;;25.20;16.00;;;;;;;;;;4987612;28;20479;-88
2023/04/15 04:58:28;;;;;;;27.27;16.63;;;;;;;;;;4983845;28;20418;-89
2023/04/15 05:00:55;;;;;;;26.38;17.30;;;;;;;;;;4986258;28;20405;-88
2023/04/15 05:03:21;;;;;;;26.08;18.00;;;;;;;;;;4991269;28;20456;-88
2023/04/15 05:05:48;;;;;;;26.60;17.42;;;;;;;;;;4999057;28;20458;-83
2023/04/15 05:08:14;;;;;;;26.92;17.70;;;;;;;;;;4984556;28;20464;-83
2023/04/15 05:10:41;;;;;;;28.23;17.30;;;;;;;;;;4994307;28;20507;-82
2023/04/15 05:13:07;;;;;;;27.65;17.92;;;;;;;;;;4990437;28;20463;-83
2023/04/15 05:15:35;;;;;;;28.02;18.30;;;;;;;;;;4997706;28;20417;-83
2023/04/15 05:18:01;;;;;;;29.73;18.33;;;;;;;;;;4988184;28;20424;-83
2023/04/15 05:20:28;;;;;;;28.20;18.35;;;;;;;;;;5012027;28;20412;-82
2023/04/15 05:22:54;;;;;;;26.92;17.33;;;;;;;;;;4994312;28;20414;-81
2023/04/15 05:25:20;;;;;;;30.23;17.58;;;;;;;;;;4958788;28;20970;-80
2023/04/15 05:27:46;;;;;;;27.40;17.80;;;;;;;;;;4981945;28;20940;-83
2023/04/15 05:30:12;;;;;;;28.38;18.60;;;;;;;;;;4982512;28;20433;-83
2023/04/15 05:32:38;;;;;;;28.63;18.38;;;;;;;;;;4975559;28;20418;-83
2023/04/15 05:35:05;;;;;;;26.33;17.90;;;;;;;;;;4977079;28;20422;-82
2023/04/15 05:37:31;;;;;;;25.60;17.77;;;;;;;;;;4981500;28;20426;-83
2023/04/15 05:39:57;;;;;;;26.77;17.25;;;;;;;;;;4958546;28;20420;-83
2023/04/15 05:42:23;;;;;;;26.83;17.40;;;;;;;;;;4968208;28;20425;-82
2023/04/15 05:44:50;;;;;;;24.80;16.88;;;;;;;;;;4976926;28;20460;-83
2023/04/15 05:47:19;;;;;;;27.52;17.17;;;;;;;;;;4957992;28;20811;-83
2023/04/15 05:49:45;;;;;;;23.83;16.13;;;;;;;;;;4972650;28;20505;-82
2023/04/15 05:52:14;;;;;;;23.75;16.13;;;;;;;;;;4991164;28;20413;-82
2023/04/15 05:54:40;;;;;;;25.15;16.45;;;;;;;;;;4980516;28;21005;-82
2023/04/15 05:57:07;;;;;;;25.03;16.43;;;;;;;;;;4977533;28;20922;-82
2023/04/15 05:59:33;;;;;;;23.98;16.15;;;;;;;;;;4985135;28;20434;-82
2023/04/15 06:01:59;;;;;;;27.80;17.55;;;;;;;;;;4965016;28;20443;-82
2023/04/15 06:04:25;;;;;;;27.67;18.02;;;;;;;;;;5001709;28;20594;-83
2023/04/15 06:06:51;;;;;;;26.02;17.10;;;;;;;;;;4969847;28;20443;-84
2023/04/15 06:09:18;;;;;;;26.90;16.88;;;;;;;;;;4974201;28;20487;-83
2023/04/15 06:11:44;;;;;;;23.83;15.63;;;;;;;;;;4973957;28;20413;-83
2023/04/15 06:14:10;;;;;;;22.50;15.60;;;;;;;;;;4958500;28;20539;-82
2023/04/15 06:16:36;;;;;;;23.48;16.00;;;;;;;;;;4974586;28;20510;-82
2023/04/15 06:19:02;;;;;;;22.60;15.75;;;;;;;;;;4958605;28;20424;-84
2023/04/15 06:21:30;;;;;;;23.52;16.45;;;;;;;;;;4973550;28;20438;-81
2023/04/15 06:24:02;;;;;;;24.33;15.93;;;;;;;;;;4973051;28;20412;-82
2023/04/15 06:26:29;;;;;;;23.17;16.00;;;;;;;;;;4981481;28;20924;-81
2023/04/15 06:28:55;;;;;;;23.45;16.08;;;;;;;;;;4959058;28;20829;-82
2023/04/15 06:31:21;;;;;;;24.98;16.45;;;;;;;;;;4957392;28;21105;-82
2023/04/15 06:33:50;;;;;;;23.35;16.80;;;;;;;;;;4990776;28;20453;-82
2023/04/15 06:36:16;;;;;;;26.40;16.83;;;;;;;;;;4992267;28;20542;-82
2023/04/15 06:38:45;;;;;;;24.98;17.20;;;;;;;;;;4973404;28;20429;-82
2023/04/15 06:41:11;;;;;;;23.15;15.85;;;;;;;;;;4957231;28;20488;-82
2023/04/15 06:43:38;;;;;;;27.02;16.55;;;;;;;;;;5005878;28;20406;-82
2023/04/15 06:46:04;;;;;;;23.40;15.80;;;;;;;;;;4982229;28;20424;-80
2023/04/15 06:48:32;;;;;;;24.47;15.97;;;;;;;;;;4963612;28;20540;-82
2023/04/15 06:50:59;;;;;;;22.50;15.23;;;;;;;;;;4982824;28;20444;-83
2023/04/15 06:53:26;;;;;;;22.90;15.20;;;;;;;;;;4993191;28;20426;-81
2023/04/15 06:55:53;;;;;;;23.05;15.18;;;;;;;;;;4950574;28;20455;-81
2023/04/15 06:58:19;;;;;;;21.98;14.57;;;;;;;;;;4971164;28;20502;-81
2023/04/15 07:00:45;;;;;;;20.63;14.05;;;;;;;;;;4959876;28;20430;-81
2023/04/15 07:03:12;;;;;;;20.67;14.00;;;;;;;;;;4994999;28;20505;-79
2023/04/15 07:05:42;;;;;;;20.13;13.23;;;;;;;;;;4980438;28;20512;-80
2023/04/15 07:08:11;;;;;;;19.20;13.52;;;;;;;;;;4956537;28;20446;-81
2023/04/15 07:10:56;;;;;;;20.75;13.30;;;;;;;;;;4999691;28;20765;-82
2023/04/15 07:13:48;;;;;;;;;;;;;;;;;;;;;
2023/04/15 07:19:58;;;;;;;;;;;;;;;;;;;;;
2023/04/15 07:22:25;;;;;;;18.40;12.30;;;;;;;;;;4903786;29;20429;-82
2023/04/15 07:28:38;;;;;;;17.88;11.50;;;;;;;;;;4878296;29;20447;-82
2023/04/15 07:31:13;;;;;;;18.35;11.55;;;;;;;;;;4850699;29;20429;-81
2023/04/15 07:40:13;;;;;;;15.55;10.07;;;;;;;;;;4858017;29;20495;-81
2023/04/15 07:42:48;;;;;;;12.25;8.32;;;;;;;;;;4862453;29;20999;-83
2023/04/15 07:45:20;;;;;;;11.98;7.43;;;;;;;;;;4899763;29;20730;-83
2023/04/15 07:51:45;;;;;;;10.02;6.78;;;9.50;99.90;;;;;;4912344;29;20423;-83
2023/04/15 08:01:12;;;;;;;8.88;6.40;;;;;;;;;;4898107;29;20425;-83
2023/04/15 08:03:43;;;;;;;10.43;6.80;;;;;;;;;;4919779;29;20417;-82
2023/04/15 08:06:30;;;;;;;11.48;6.80;;;;;;;;;;4879583;29;20436;-82
2023/04/15 08:09:13;;;;;;;10.07;6.45;;;;;;;;;;4911461;29;20421;-82
2023/04/15 08:15:05;;;;;;;11.63;6.45;;;;;;;;;;4949831;29;20466;-81
2023/04/15 08:21:29;;;;;;;;;;;;;;;;;;;;;
2023/04/15 08:24:11;;;;;;;9.23;5.87;;;;;;;;;;4897059;29;20459;-81
2023/04/15 08:27:16;;;;;;;10.02;6.40;;;;;;;;;;4939532;29;20782;-82
2023/04/15 08:29:44;;;;;;;11.95;6.82;;;;;;;;;;4947353;29;20418;-83
2023/04/15 08:32:10;;;;;;;9.53;5.73;;;;;;;;;;4940444;29;20924;-82
2023/04/15 08:35:01;;;;;;;8.95;5.13;;;;;;;;;;4939423;29;20857;-81
2023/04/15 08:38:15;;;;;;;9.07;5.10;;;;;;;;;;4940283;28;20523;-81
2023/04/15 08:41:08;;;;;;;;;;;;;;;;;;;;;
2023/04/15 08:43:47;;;;;;;9.30;5.40;;;;;;;;;;4957282;28;20412;-82
2023/04/15 08:46:16;;;;;;;9.27;5.47;;;;;;;;;;4999053;28;20434;-81
2023/04/15 08:48:47;;;;;;;9.55;5.55;;;;;;;;;;4980342;28;20438;-82
2023/04/15 08:51:30;;;;;;;11.45;5.80;;;;;;;;;;4985369;28;20454;-81
2023/04/15 08:54:00;;;;;;;10.70;6.00;;;;;;;;;;4958849;28;20775;-82
2023/04/15 08:57:01;;;;;;;11.88;5.82;;;;;;;;;;4958321;28;20412;-82
2023/04/15 08:59:38;;;;;;;10.43;5.32;;;;;;;;;;4948425;28;20414;-81
2023/04/15 09:02:17;;;;;;;7.72;5.07;;;;;;;;;;4958581;28;20424;-82
2023/04/15 09:05:05;;;;;;;10.82;4.95;;;;;;;;;;4947181;28;20442;-82
2023/04/15 09:07:46;;;;;;;7.30;4.27;;;;;;;;;;4975326;28;20518;-82
2023/04/15 09:10:17;;;;;;;6.38;3.63;;;;;;;;;;4958638;28;20408;-83
2023/04/15 09:13:03;;;;;;;7.60;3.50;;;;;;;;;;4900737;29;20435;-82
2023/04/15 09:16:04;;;;;;;5.93;3.53;;;;;;;;;;4901606;29;20990;-83
2023/04/15 09:18:51;;;;;;;8.07;3.70;;;;;;;;;;4878133;29;20440;-83
2023/04/15 09:24:39;;;;;;;6.40;3.65;;;;;;;;;;4954503;29;20818;-86
2023/04/15 09:27:10;;;;;;;7.53;3.93;;;;;;;;;;4923860;28;20446;-83
2023/04/15 09:31:01;;;;;;;6.45;3.85;;;;;;;;;;4938969;28;20532;-81
2023/04/15 09:33:30;;;;;;;8.85;4.28;;;;;;;;;;4944726;28;20433;-82
2023/04/15 09:36:06;;;;;;;8.47;4.10;;;;;;;;;;4938654;28;20811;-82
2023/04/15 09:38:40;;;;;;;6.60;3.83;;;;;;;;;;4957038;28;20447;-82
2023/04/15 09:41:46;;;;;;;8.95;3.78;;;;;;;;;;4955343;28;20459;-82
2023/04/15 09:44:25;;;;;;;6.43;3.67;;;;;;;;;;4978427;28;20436;-81
2023/04/15 09:46:54;;;;;;;8.05;3.90;;;;;;;;;;4976762;28;20442;-81
2023/04/15 09:49:28;;;;;;;6.70;3.38;;;;;;;;;;4978348;28;20406;-82
2023/04/15 09:51:58;;;;;;;5.60;2.72;;;;;;;;;;4997346;28;20422;-83
2023/04/15 09:54:36;;;;;;;6.22;3.17;;;;;;;;;;4992849;28;20485;-82
2023/04/15 09:57:16;;;;;;;5.27;2.90;;;;;;;;;;4975386;28;20470;-81
2023/04/15 09:59:42;;;;;;;7.72;2.85;;;;;;;;;;4973937;28;20433;-81
2023/04/15 10:02:15;;;;;;;5.20;2.50;;;;;;;;;;4975195;28;20449;-81
2023/04/15 10:04:41;;;;;;;5.00;2.45;;;;;;;;;;4975714;28;20435;-83
2023/04/15 10:07:11;;;;;;;4.55;2.10;;;;;;;;;;4987049;28;20430;-83
2023/04/15 10:09:38;;;;;;;3.78;1.85;;;;;;;;;;4973819;28;20412;-82
2023/04/15 10:12:04;;;;;;;5.05;2.08;;;;;;;;;;4990959;28;20423;-82
2023/04/15 10:14:35;;;;;;;3.90;1.80;;;;;;;;;;4986486;28;20784;-83
2023/04/15 10:17:05;;;;;;;3.67;1.80;;;;;;;;;;4993285;28;20457;-82
2023/04/15 10:19:36;;;;;;;3.40;1.88;;;;;;;;;;4989904;28;20406;-83
2023/04/15 10:22:04;;;;;;;3.33;1.70;;;;;;;;;;4973667;28;20452;-83
2023/04/15 10:24:36;;;;;;;3.03;1.48;;;;;;;;;;4976920;28;20461;-81
2023/04/15 10:27:10;;;;;;;4.05;1.80;;;;;;;;;;4975967;28;20489;-82
2023/04/15 10:29:39;;;;;;;3.58;1.83;;;;;;;;;;4988461;28;20426;-80
2023/04/15 10:32:05;;;;;;;5.03;2.00;;;;;;;;;;4977208;28;20857;-80
2023/04/15 10:34:34;;;;;;;3.33;2.00;;;;;;;;;;4969823;28;20429;-81
2023/04/15 10:37:14;;;;;;;4.60;2.10;;;;;;;;;;4976932;28;20425;-81
2023/04/15 10:39:44;;;;;;;5.00;2.25;;;;;;;;;;4977038;28;20422;-82
2023/04/15 10:42:33;;;;;;;4.85;1.98;;;;;;;;;;4986968;28;21083;-82
2023/04/15 10:45:21;;;;;;;5.75;2.40;;;;;;;;;;4987957;28;20433;-81
2023/04/15 10:48:03;;;;;;;5.47;2.40;;;;;;;;;;4980478;28;21020;-82
2023/04/15 10:50:36;;;;;;;5.15;2.03;;;;;;;;;;4975178;28;20416;-82
2023/04/15 10:53:09;;;;;;;4.37;1.80;;;;;;;;;;4990561;28;20551;-82
2023/04/15 10:55:39;;;;;;;3.80;1.95;;;;;;;;;;4974418;28;20426;-82
2023/04/15 10:58:13;;;;;;;4.60;2.10;;;;;;;;;;4975048;28;20538;-82
2023/04/15 11:00:51;;;;;;;4.35;2.40;;;;;;;;;;4975780;28;20454;-82
2023/04/15 11:03:40;;;;;;;5.60;2.55;;;;;;;;;;4991343;28;20503;-81
2023/04/15 11:06:09;;;;;;;4.47;2.58;;;;;;;;;;4985942;28;20928;-82
2023/04/15 11:09:04;;;;;;;3.95;2.33;;;;;;;;;;4994622;28;20428;-81
2023/04/15 11:11:49;;;;;;;6.63;2.50;;;;;;;;;;4988703;28;20783;-81
2023/04/15 11:14:22;;;;;;;5.28;2.45;;;;;;;;;;4986148;28;20473;-82
2023/04/15 11:17:06;;;;;;;5.45;2.35;;;;;;;;;;4965183;28;20927;-82
2023/04/15 11:19:39;;;;;;;6.28;2.38;;;;;;;;;;5006867;28;20520;-82
2023/04/15 11:22:06;;;;;;;5.75;2.20;;;;;;;;;;4968502;28;20441;-82
2023/04/15 11:24:35;;;;;;;5.50;2.30;;;;;;;;;;4985207;28;20471;-83
2023/04/15 11:27:04;;;;;;;6.40;2.65;;;;;;;;;;4978180;28;20432;-80
2023/04/15 11:29:46;;;;;;;5.38;2.33;;;;;;;;;;4987290;28;20430;-80
2023/04/15 11:32:17;;;;;;;6.13;2.50;;;;;;;;;;4975882;28;20711;-81
2023/04/15 11:34:47;;;;;;;4.00;2.40;;;;;;;;;;4975813;28;20411;-81
2023/04/15 11:37:13;;;;;;;6.03;2.30;;;;;;;;;;4982004;28;20417;-80
2023/04/15 11:39:40;;;;;;;6.07;2.60;;;;;;;;;;4991740;28;20429;-82
2023/04/15 11:42:16;;;;;;;7.35;2.72;;;;;;;;;;4990140;28;20453;-81
2023/04/15 11:45:08;;;;;;;7.88;2.90;;;;;;;;;;4985663;28;20500;-80
2023/04/15 11:47:34;;;;;;;8.43;3.35;;;;;;;;;;4993359;28;20434;-82
2023/04/15 11:50:45;;;;;;;4.50;2.67;;;;;;;;;;4990942;28;20561;-81
2023/04/15 11:53:23;;;;;;;6.00;2.88;;;;;;;;;;4920632;29;20457;-81
2023/04/15 11:55:52;;;;;;;6.70;2.75;;;;;;;;;;4902336;29;20474;-82
2023/04/15 11:58:23;;;;;;;6.70;2.95;;;;;;;;;;4946774;28;20778;-80
2023/04/15 12:00:57;;;;;;;6.77;2.60;;;;;;;;;;4974499;28;20564;-83
2023/04/15 12:03:32;;;;;;;7.68;2.60;;;;;;;;;;4970153;28;20842;-83
2023/04/15 12:06:18;;;;;;;8.35;2.53;;;10.50;99.90;;;;;;4973625;28;20427;-83
2023/04/15 12:08:51;;;;;;;5.30;2.25;;;;;;;;;;4982381;28;20421;-82
2023/04/15 12:11:20;;;;;;;4.85;2.45;;;;;;;;;;5006654;28;20416;-82
2023/04/15 12:13:50;;;;;;;4.13;2.00;;;;;;;;;;4991334;28;20502;-83
2023/04/15 12:16:19;;;;;;;5.25;2.40;;;;;;;;;;4973251;28;20427;-83
2023/04/15 12:18:59;;;;;;;4.78;2.13;;;;;;;;;;4970849;28;20434;-82
2023/04/15 12:21:38;;;;;;;6.82;2.25;;;;;;;;;;4991131;28;20498;-82
2023/04/15 12:24:08;;;;;;;8.40;2.40;;;;;;;;;;4980652;28;20432;-83
2023/04/15 12:26:43;;;;;;;7.68;2.63;;;;;;;;;;4976552;28;20462;-83
2023/04/15 12:29:10;;;;;;;9.05;2.33;;;;;;;;;;4976895;28;20459;-89
2023/04/15 12:32:03;;;;;;;7.18;2.20;;;;;;;;;;4980829;28;20530;-89
2023/04/15 12:34:39;;;;;;;10.90;2.60;;;;;;;;;;4988353;28;20815;-89
2023/04/15 12:40:20;;;;;;;11.23;2.90;;;;;;;;;;5000696;28;20436;-90
2023/04/15 12:43:05;;;;;;;9.00;2.80;;;;;;;;;;4987179;28;20493;-88
2023/04/15 12:49:15;;;;;;;10.73;2.50;;;;;;;;;;5000936;28;20426;-91
2023/04/15 12:52:00;;;;;;;9.82;2.72;;;;;;;;;;4981408;28;20415;-90
2023/04/15 12:54:27;;;;;;;8.52;2.10;;;;;;;;;;4977779;28;20493;-88
2023/04/15 12:57:02;;;;;;;8.15;2.10;;;;;;;;;;4995295;28;20442;-91
2023/04/15 12:59:54;;;;;;;9.88;2.33;;;;;;;;;;4978429;28;20491;-88
2023/04/15 13:02:25;;;;;;;8.88;1.85;;;;;;;;;;4992327;28;20419;-88
2023/04/15 13:04:52;;;;;;;6.70;2.00;;;;;;;;;;4999959;28;20428;-89
2023/04/15 13:07:22;;;;;;;7.88;2.35;;;;;;;;;;5019366;28;20487;-90
2023/04/15 13:09:48;;;;;;;12.80;2.40;;;;;;;;;;4974869;28;20427;-90
2023/04/15 13:12:17;;;;;;;9.18;2.20;;;;;;;;;;4987604;28;20498;-89
2023/04/15 13:14:49;;;;;;;6.97;2.05;;;;;;;;;;4994826;28;20449;-86
2023/04/15 13:17:19;;;;;;;10.85;2.15;;;;;;;;;;5002996;28;20478;-89
2023/04/15 13:19:54;;;;;;;6.67;1.93;;;;;;;;;;4991312;28;20433;-88
2023/04/15 13:22:51;;;;;;;5.97;1.83;;;;;;;;;;4954643;28;20490;-87
2023/04/15 13:25:35;;;;;;;8.85;1.70;;;;;;;;;;4989212;28;20469;-90
2023/04/15 13:28:04;;;;;;;6.78;2.08;;;;;;;;;;5003880;28;20455;-87
2023/04/15 13:30:38;;;;;;;7.15;1.90;;;;;;;;;;4989119;28;20410;-88
2023/04/15 13:33:05;;;;;;;11.00;2.05;;;;;;;;;;4979516;28;20493;-89
2023/04/15 13:36:03;;;;;;;7.20;2.30;;;;;;;;;;4980344;28;20505;-88
2023/04/15 13:38:43;;;;;;;6.63;2.23;;;;;;;;;;4978319;28;20476;-88
2023/04/15 13:41:51;;;;;;;7.22;1.95;;;;;;;;;;4971934;28;20440;-89
2023/04/15 13:44:38;;;;;;;;;;;;;;;;;;;;;
2023/04/15 13:47:38;;;;;;;10.07;2.80;;;;;;;;;;4984322;28;20427;-90
2023/04/15 13:50:44;;;;;;;9.50;2.25;;;;;;;;;;4983658;28;20426;-89
2023/04/15 13:54:00;;;;;;;9.95;2.22;;;;;;;;;;4918371;29;20834;-88
2023/04/15 13:57:00;;;;;;;9.02;2.50;;;;;;;;;;4865104;29;20451;-90
2023/04/15 13:59:43;;;;;;;;;;;;;;;;;;;;;
2023/04/15 14:02:26;;;;;;;7.10;2.00;;;;;;;;;;4909427;29;20461;-89
2023/04/15 14:05:01;;;;;;;12.65;2.60;;;;;;;;;;4925806;29;20965;-87
2023/04/15 14:07:34;;;;;;;11.47;2.83;;;;;;;;;;4924313;29;20438;-89
2023/04/15 14:10:15;;;;;;;12.70;2.70;;;;;;;;;;4926700;29;20423;-89
2023/04/15 14:12:42;;;;;;;9.25;2.17;;;;;;;;;;4926410;29;20493;-88
2023/04/15 14:15:38;;;;;;;10.63;2.30;;;;;;;;;;4969459;28;20493;-89
2023/04/15 14:21:41;;;;;;;10.25;2.33;;;;;;;;;;5001251;28;20485;-89
2023/04/15 14:24:18;;;;;;;13.50;2.65;;;;;;;;;;4981160;28;20824;-87
2023/04/15 14:27:23;;;;;;;9.68;2.38;;;;;;;;;;4985533;28;20479;-86
2023/04/15 14:30:10;;;;;;;7.03;2.55;;;;;;;;;;5006763;28;20426;-87
2023/04/15 14:32:43;;;;;;;11.07;2.40;;;;;;;;;;4949930;28;20451;-87
2023/04/15 14:35:12;;;;;;;10.60;2.92;;;;;;;;;;4997779;28;20490;-87
2023/04/15 14:38:04;;;;;;;8.70;2.50;;;;;;;;;;4980243;28;20481;-87
2023/04/15 14:40:46;;;;;;;10.20;2.80;;;;;;;;;;4998958;28;20445;-87
2023/04/15 14:43:28;;;;;;;14.32;3.13;;;;;;;;;;4950004;28;20424;-87
2023/04/15 14:46:07;;;;;;;13.00;3.80;;;;;;;;;;4990337;28;20453;-87
2023/04/15 14:48:48;;;;;;;8.15;2.70;;;;;;;;;;4948701;28;20512;-87
2023/04/15 14:51:31;;;;;;;11.10;3.30;;;;;;;;;;4977213;28;20939;-88
2023/04/15 14:54:12;;;;;;;13.77;3.58;;;;;;;;;;4997552;28;20426;-87
2023/04/15 14:56:41;;;;;;;8.35;2.65;;;;;;;;;;4996792;28;20665;-87
2023/04/15 14:59:10;;;;;;;9.57;2.70;;;;;;;;;;5006849;28;20458;-87
2023/04/15 15:01:41;;;;;;;12.20;3.00;;;;;;;;;;4998112;28;20525;-87
2023/04/15 15:04:20;;;;;;;;;;;;;;;;;;;;;
2023/04/15 15:06:47;;;;;;;10.38;2.85;;;;;;;;;;4996687;28;20497;-87
2023/04/15 15:09:13;;;;;;;10.05;2.80;;;;;;;;;;4985171;28;20427;-87
2023/04/15 15:11:51;;;;;;;14.65;3.22;;;;;;;;;;4974706;28;20946;-88
2023/04/15 15:14:23;;;;;;;12.40;3.08;;;;;;;;;;4982026;28;20410;-87
2023/04/15 15:16:49;;;;;;;10.32;3.10;;;;;;;;;;4979823;28;20938;-87
2023/04/15 15:19:19;;;;;;;11.95;3.25;;;;;;;;;;4963714;28;20459;-86
2023/04/15 15:21:48;;;;;;;10.70;3.17;;;;;;;;;;4975616;28;20459;-86
2023/04/15 15:24:21;;;;;;;15.13;3.53;;;;;;;;;;4985325;28;20422;-87
2023/04/15 15:27:03;;;;;;;15.70;3.75;;;;;;;;;;5003775;28;20425;-86
2023/04/15 15:29:38;;;;;;;12.30;3.83;;;;;;;;;;4981822;28;20428;-86
2023/04/15 15:32:15;;;;;;;12.70;4.25;;;;;;;;;;4971467;28;20441;-86
2023/04/15 15:34:50;;;;;;;11.18;3.60;;;;;;;;;;4976606;28;20501;-81
2023/04/15 15:37:25;;;;;;;12.43;4.10;;;;;;;;;;4983148;28;20408;-82
2023/04/15 15:40:03;;;;;;;15.68;4.15;;;;;;;;;;4984617;28;20434;-82
2023/04/15 15:42:33;;;;;;;15.40;3.58;;;;;;;;;;4995383;28;20440;-82
2023/04/15 15:45:03;;;;;;;15.07;3.60;;;;;;;;;;4987659;28;20917;-81
2023/04/15 15:47:35;;;;;;;16.02;4.40;;;;;;;;;;4991516;28;20433;-81
2023/04/15 15:50:03;;;;;;;12.80;3.83;;;;;;;;;;4975373;28;20419;-80
2023/04/15 15:52:29;;;;;;;19.50;4.32;;;;;;;;;;4976997;28;20433;-81